Clevelnd, Tennessee
Current Conditions -  °F | °C
As of 10:35 PM on Saturday 22 Nov 2014 (Local Time) from KRZR Reporting Station
Overcast Overcast  
Wind Chill: 46°   Ceiling: 3400
Heat Index: 46°   Visibility: 10mi
Dew Point: 37°   Wind: 0mph
Humidity: 71%   Direction: NA
Pressure: 30.19"   Gusts: NA
Location:  35.1226°N, 84.8593°W
Report Text: KRZR 230335Z AUTO 00000KT 10SM OVC034 08/03 A3019 RMK
Loading
Personal Weather Stations






























Interactive Weather Map New forecast layout! Learn more

10-Day Weather Forecast

Advertisements
Track Severe Weather on mobile